Time;durP1;ratioP1;P1;durP2;ratioP2;P2;SDS_P1;SDS_P2;PMS_P1;PMS_P2;Temp;Humidity;BMP_temperature;BMP_pressure;BME280_temperature;BME280_humidity;BME280_pressure;Samples;Min_cycle;Max_cycle;Signal;HPM_P1;HPM_P2
2022/01/31 00:00:50;;;;;;;14.77;5.28;;;6.20;99.90;;;;;;5056793;28;20218;-60
2022/01/31 00:03:16;;;;;;;15.07;5.43;;;6.20;99.90;;;;;;5074595;28;20180;-60
2022/01/31 00:05:42;;;;;;;18.83;5.95;;;6.20;99.90;;;;;;5074518;28;20174;-59
2022/01/31 00:08:07;;;;;;;15.55;5.00;;;6.30;99.90;;;;;;5074397;28;20209;-59
2022/01/31 00:10:33;;;;;;;12.68;4.95;;;6.10;99.90;;;;;;5074311;28;20264;-59
2022/01/31 00:15:29;;;;;;;14.10;5.38;;;6.10;99.90;;;;;;5074377;28;20189;-59
2022/01/31 00:17:55;;;;;;;20.30;5.82;;;6.30;99.90;;;;;;5074306;28;20212;-59
2022/01/31 00:20:21;;;;;;;13.35;4.70;;;6.40;99.90;;;;;;5074151;28;20659;-59
2022/01/31 00:22:47;;;;;;;14.07;4.30;;;6.40;99.90;;;;;;5056250;28;20192;-60
2022/01/31 00:25:13;;;;;;;16.60;5.53;;;6.40;99.90;;;;;;5073967;28;20170;-59
2022/01/31 00:27:39;;;;;;;15.30;5.18;;;6.30;99.90;;;;;;5056170;28;20277;-60
2022/01/31 00:30:05;;;;;;;14.57;5.32;;;6.40;99.90;;;;;;5074088;28;20214;-60
2022/01/31 00:32:31;;;;;;;13.20;4.13;;;6.40;99.90;;;;;;5073952;28;20184;-59
2022/01/31 00:34:58;;;;;;;19.88;5.25;;;6.40;99.90;;;;;;5073823;28;20190;-60
2022/01/31 00:37:24;;;;;;;17.15;5.60;;;6.40;99.90;;;;;;5073767;28;20635;-60
2022/01/31 00:39:50;;;;;;;15.80;4.95;;;6.50;99.90;;;;;;5055869;28;20198;-62
2022/01/31 00:42:16;;;;;;;16.38;4.97;;;6.60;99.90;;;;;;5073617;28;20174;-60
2022/01/31 00:44:53;;;;;;;16.60;5.82;;;6.40;99.90;;;;;;5056041;28;20219;-59
2022/01/31 00:47:24;;;;;;;15.07;5.18;;;6.30;99.90;;;;;;5073692;28;20207;-60
2022/01/31 00:49:54;;;;;;;14.20;5.68;;;6.30;99.90;;;;;;5073664;28;20181;-59
2022/01/31 00:52:19;;;;;;;18.65;5.47;;;6.20;99.90;;;;;;5073518;28;20544;-59
2022/01/31 00:54:46;;;;;;;18.65;5.65;;;6.30;99.90;;;;;;5073411;28;20178;-59
2022/01/31 00:57:11;;;;;;;15.70;5.05;;;6.20;99.90;;;;;;5073441;28;20190;-59
2022/01/31 00:59:37;;;;;;;14.35;5.18;;;6.20;99.90;;;;;;5073512;28;20205;-59
2022/01/31 01:02:03;;;;;;;16.15;5.47;;;6.20;99.90;;;;;;5073404;28;20189;-60
2022/01/31 01:04:29;;;;;;;13.20;5.03;;;6.20;99.90;;;;;;5055486;28;20181;-59
2022/01/31 01:06:55;;;;;;;14.90;5.72;;;6.10;99.90;;;;;;5072853;28;20178;-59
2022/01/31 01:09:21;;;;;;;15.75;5.38;;;6.20;99.90;;;;;;5055568;28;20229;-59
2022/01/31 01:11:47;;;;;;;17.08;6.22;;;6.10;99.90;;;;;;5055378;28;20188;-59
2022/01/31 01:14:12;;;;;;;22.98;5.82;;;6.20;99.90;;;;;;5073683;28;20182;-59
2022/01/31 01:16:38;;;;;;;18.08;5.68;;;6.20;99.90;;;;;;5073328;28;20184;-60
2022/01/31 01:19:04;;;;;;;15.85;5.65;;;6.20;99.90;;;;;;5073095;28;20205;-59
2022/01/31 01:21:30;;;;;;;21.08;5.38;;;6.10;99.90;;;;;;5073168;28;20188;-59
2022/01/31 01:23:56;;;;;;;13.82;5.53;;;6.10;99.90;;;;;;5055241;28;20268;-60
2022/01/31 01:26:21;;;;;;;20.15;5.88;;;6.10;99.90;;;;;;5073118;28;20239;-60
2022/01/31 01:28:47;;;;;;;20.35;5.50;;;5.90;99.90;;;;;;5038702;28;20209;-59
2022/01/31 01:31:14;;;;;;;19.35;5.55;;;6.00;99.90;;;;;;5073110;28;20196;-60
2022/01/31 01:33:41;;;;;;;19.92;5.90;;;6.00;99.90;;;;;;5073167;28;20173;-60
2022/01/31 01:36:07;;;;;;;16.15;5.28;;;5.90;99.90;;;;;;5072986;28;20184;-59
2022/01/31 01:38:34;;;;;;;15.23;5.55;;;6.10;99.90;;;;;;5072882;28;20209;-59
2022/01/31 01:41:00;;;;;;;17.27;5.95;;;6.10;99.90;;;;;;5073249;28;20174;-60
2022/01/31 01:43:29;;;;;;;16.23;6.07;;;6.10;99.90;;;;;;5072696;28;20179;-60
2022/01/31 01:45:57;;;;;;;15.48;5.80;;;6.20;99.90;;;;;;5073024;28;20178;-59
2022/01/31 01:48:24;;;;;;;16.55;6.00;;;6.10;99.90;;;;;;5073335;28;20190;-59
2022/01/31 01:50:50;;;;;;;17.33;5.75;;;6.10;99.90;;;;;;5072821;28;20548;-60
2022/01/31 01:53:16;;;;;;;14.82;6.25;;;6.10;99.90;;;;;;5073120;28;20180;-60
2022/01/31 01:55:45;;;;;;;17.45;5.95;;;6.20;99.90;;;;;;5072937;28;20186;-60
2022/01/31 01:58:16;;;;;;;18.52;6.25;;;6.20;99.90;;;;;;5055241;28;20239;-60
2022/01/31 02:01:02;;;;;;;14.70;5.32;;;6.20;99.90;;;;;;5072812;28;20208;-60
2022/01/31 02:03:30;;;;;;;13.75;5.50;;;6.20;99.90;;;;;;5072734;28;20223;-60
2022/01/31 02:05:56;;;;;;;18.25;6.28;;;6.20;99.90;;;;;;5055107;28;20177;-60
2022/01/31 02:08:23;;;;;;;11.18;5.28;;;6.30;99.90;;;;;;5072752;28;20178;-60
2022/01/31 02:10:49;;;;;;;18.30;5.88;;;6.30;99.90;;;;;;5072763;28;20179;-60
2022/01/31 02:13:15;;;;;;;20.92;5.80;;;6.30;99.90;;;;;;5072737;28;20176;-61
2022/01/31 02:15:43;;;;;;;13.57;5.20;;;6.40;99.90;;;;;;5072660;28;20173;-60
2022/01/31 02:18:08;;;;;;;15.63;5.60;;;6.40;99.90;;;;;;5074374;28;20193;-60
2022/01/31 02:20:39;;;;;;;11.85;5.22;;;6.40;99.90;;;;;;5058597;28;20219;-60
2022/01/31 02:23:10;;;;;;;11.57;5.63;;;6.40;99.90;;;;;;5076489;28;20284;-60
2022/01/31 02:25:52;;;;;;;10.68;4.82;;;6.40;99.90;;;;;;5076382;28;20276;-60
2022/01/31 02:28:18;;;;;;;11.93;5.00;;;6.50;99.90;;;;;;5076109;28;20193;-59
2022/01/31 02:30:44;;;;;;;13.50;5.97;;;6.50;99.90;;;;;;5076237;28;20230;-60
2022/01/31 02:33:09;;;;;;;11.18;5.75;;;6.50;99.90;;;;;;5058545;28;20526;-60
2022/01/31 02:35:36;;;;;;;15.10;6.15;;;6.60;99.90;;;;;;5076096;28;20224;-60
2022/01/31 02:38:01;;;;;;;14.23;6.57;;;6.70;99.90;;;;;;5076167;28;20174;-59
2022/01/31 02:40:28;;;;;;;13.82;6.68;;;6.80;99.90;;;;;;5058088;28;20213;-60
2022/01/31 02:42:54;;;;;;;19.17;7.65;;;6.80;99.90;;;;;;5041411;28;20178;-60
2022/01/31 02:45:20;;;;;;;16.35;7.10;;;6.90;99.90;;;;;;5075858;28;20199;-59
2022/01/31 02:47:52;;;;;;;18.17;7.57;;;6.90;99.90;;;;;;5075994;28;20234;-59
2022/01/31 02:50:18;;;;;;;21.70;7.72;;;6.90;99.90;;;;;;5075974;28;20197;-60
2022/01/31 02:52:48;;;;;;;21.58;7.47;;;7.10;99.90;;;;;;5075806;28;20531;-59
2022/01/31 02:55:15;;;;;;;19.58;6.70;;;7.10;99.90;;;;;;5075750;28;20528;-60
2022/01/31 02:57:41;;;;;;;15.70;6.53;;;7.10;99.90;;;;;;5075682;28;20202;-60
2022/01/31 03:00:09;;;;;;;16.98;5.32;;;7.20;99.90;;;;;;5075705;28;20206;-60
2022/01/31 03:02:34;;;;;;;19.55;4.82;;;7.20;99.90;;;;;;5075807;28;20233;-60
2022/01/31 03:05:00;;;;;;;13.45;4.13;;;7.30;99.90;;;;;;5075677;28;20261;-60
2022/01/31 03:07:25;;;;;;;13.82;3.65;;;7.20;99.90;;;;;;5075623;28;20185;-60
2022/01/31 03:09:51;;;;;;;11.45;4.13;;;7.20;99.90;;;;;;5075572;28;20276;-60
2022/01/31 03:12:17;;;;;;;11.85;4.18;;;7.30;99.90;;;;;;5075280;28;20182;-60
2022/01/31 03:14:42;;;;;;;15.18;4.03;;;7.20;99.90;;;;;;5057614;28;20178;-60
2022/01/31 03:17:09;;;;;;;12.13;2.95;;;7.20;99.90;;;;;;5075291;28;20170;-59
2022/01/31 03:19:40;;;;;;;11.43;3.95;;;7.20;99.90;;;;;;5075339;28;20206;-60
2022/01/31 03:22:06;;;;;;;10.52;3.97;;;7.20;99.90;;;;;;5057417;28;20239;-59
2022/01/31 03:24:33;;;;;;;10.50;3.55;;;7.10;99.90;;;;;;5075226;28;20212;-60
2022/01/31 03:26:59;;;;;;;17.08;3.78;;;7.20;99.90;;;;;;5075390;28;20185;-59
2022/01/31 03:29:25;;;;;;;10.23;3.50;;;7.10;99.90;;;;;;5075095;28;20269;-60
2022/01/31 03:31:51;;;;;;;10.52;3.50;;;7.00;99.90;;;;;;5075074;28;20562;-60
2022/01/31 03:34:17;;;;;;;11.40;3.20;;;6.90;99.90;;;;;;5057383;28;20188;-60
2022/01/31 03:36:43;;;;;;;13.93;3.60;;;6.90;99.90;;;;;;5074981;28;20631;-59
2022/01/31 03:39:09;;;;;;;9.65;3.00;;;6.90;99.90;;;;;;5074793;28;20255;-59
2022/01/31 03:41:34;;;;;;;11.75;3.53;;;6.90;99.90;;;;;;5075157;28;20271;-60
2022/01/31 03:44:00;;;;;;;11.00;3.50;;;6.90;99.90;;;;;;5075027;28;20622;-60
2022/01/31 03:46:26;;;;;;;11.60;3.70;;;6.90;99.90;;;;;;5075003;28;20672;-60
2022/01/31 03:48:52;;;;;;;12.40;3.42;;;6.80;99.90;;;;;;5074631;28;20219;-60
2022/01/31 03:51:17;;;;;;;14.50;3.88;;;6.80;99.90;;;;;;5074630;28;20520;-60
2022/01/31 03:53:43;;;;;;;12.15;3.28;;;6.70;99.90;;;;;;5074622;28;20177;-59
2022/01/31 03:56:09;;;;;;;13.48;3.63;;;6.70;99.90;;;;;;5074539;28;20178;-60
2022/01/31 03:58:36;;;;;;;14.32;3.72;;;6.70;99.90;;;;;;5074620;28;20273;-59
2022/01/31 04:01:02;;;;;;;12.10;3.22;;;6.60;99.90;;;;;;5074572;28;20182;-60
2022/01/31 04:03:28;;;;;;;9.88;2.97;;;6.60;99.90;;;;;;5074533;28;20174;-60
2022/01/31 04:05:54;;;;;;;15.75;3.53;;;6.60;99.90;;;;;;5056654;28;20177;-60
2022/01/31 04:08:19;;;;;;;13.45;3.42;;;6.60;99.90;;;;;;5056510;28;20174;-59
2022/01/31 04:10:45;;;;;;;11.63;3.88;;;6.60;99.90;;;;;;5056515;28;20181;-60
2022/01/31 04:13:11;;;;;;;11.32;2.83;;;6.60;99.90;;;;;;5039889;28;20236;-59
2022/01/31 04:15:39;;;;;;;13.30;3.00;;;6.60;99.90;;;;;;5074370;28;20178;-59
2022/01/31 04:18:05;;;;;;;11.73;3.03;;;6.50;99.90;;;;;;5074203;28;20198;-60
2022/01/31 04:20:31;;;;;;;10.77;2.83;;;6.40;99.90;;;;;;5074053;28;20287;-60
2022/01/31 04:23:06;;;;;;;15.85;3.78;;;6.40;99.90;;;;;;5073925;28;20268;-59
2022/01/31 04:28:43;;;;;;;17.17;3.60;;;6.50;99.90;;;;;;5074163;28;20239;-60
2022/01/31 04:33:46;;;;;;;12.93;3.38;;;6.60;99.90;;;;;;5074120;28;20213;-60
2022/01/31 04:36:15;;;;;;;9.38;3.17;;;6.70;99.90;;;;;;5056007;28;20631;-59
2022/01/31 04:38:45;;;;;;;12.40;2.85;;;6.70;99.90;;;;;;5073807;28;20639;-60
2022/01/31 04:41:11;;;;;;;12.82;2.97;;;6.60;99.90;;;;;;5073050;28;20174;-60
2022/01/31 04:43:37;;;;;;;12.18;3.17;;;6.60;99.90;;;;;;5073731;28;20661;-60
2022/01/31 04:46:05;;;;;;;8.90;2.78;;;6.60;99.90;;;;;;5073525;28;20235;-60
2022/01/31 04:48:31;;;;;;;10.38;2.83;;;6.60;99.90;;;;;;5073580;28;20182;-59
2022/01/31 04:50:57;;;;;;;12.95;3.13;;;6.60;99.90;;;;;;5073626;28;20583;-60
2022/01/31 04:53:23;;;;;;;16.77;3.10;;;6.60;99.90;;;;;;5073630;28;20182;-60
2022/01/31 04:55:49;;;;;;;9.35;3.53;;;6.60;99.90;;;;;;5055781;28;20654;-60
2022/01/31 04:58:14;;;;;;;12.13;3.78;;;6.70;99.90;;;;;;5073448;28;20254;-59
2022/01/31 05:00:40;;;;;;;11.73;3.40;;;6.60;99.90;;;;;;5073266;28;20217;-60
2022/01/31 05:03:15;;;;;;;13.15;3.15;;;6.70;99.90;;;;;;5055811;28;20581;-59
2022/01/31 05:05:42;;;;;;;11.63;3.42;;;6.70;99.90;;;;;;5057045;28;20304;-60
2022/01/31 05:08:09;;;;;;;10.63;3.45;;;6.70;99.90;;;;;;5055388;28;20646;-60
2022/01/31 05:10:35;;;;;;;10.85;3.10;;;6.60;99.90;;;;;;5055626;28;20169;-60
2022/01/31 05:13:01;;;;;;;12.50;2.97;;;6.70;99.90;;;;;;5073142;28;20174;-60
2022/01/31 05:15:27;;;;;;;13.32;3.30;;;6.70;99.90;;;;;;5055468;28;20228;-60
2022/01/31 05:17:53;;;;;;;10.38;2.90;;;6.70;99.90;;;;;;5073145;28;20647;-60
2022/01/31 05:20:18;;;;;;;13.20;3.28;;;6.70;99.90;;;;;;5073035;28;20214;-60
2022/01/31 05:22:44;;;;;;;11.55;2.78;;;6.70;99.90;;;;;;5055688;28;20269;-59
2022/01/31 05:25:10;;;;;;;12.20;3.22;;;6.60;99.90;;;;;;5073202;28;20308;-60
2022/01/31 05:27:36;;;;;;;12.68;2.85;;;6.60;99.90;;;;;;5055163;28;20610;-59
2022/01/31 05:30:03;;;;;;;12.65;3.17;;;6.70;99.90;;;;;;5073352;28;20256;-59
2022/01/31 05:32:29;;;;;;;10.20;3.13;;;6.70;99.90;;;;;;5073208;28;20185;-59
2022/01/31 05:34:55;;;;;;;16.67;4.10;;;6.70;99.90;;;;;;5054987;28;20182;-59
2022/01/31 05:37:21;;;;;;;10.13;2.97;;;6.80;99.90;;;;;;5073105;28;20268;-60
2022/01/31 05:39:47;;;;;;;13.05;3.65;;;6.80;99.90;;;;;;5073051;28;20206;-59
2022/01/31 05:42:13;;;;;;;17.17;4.05;;;6.70;99.90;;;;;;5072963;28;20642;-59
2022/01/31 05:44:38;;;;;;;13.45;3.38;;;6.70;99.90;;;;;;5055371;28;20166;-60
2022/01/31 05:47:04;;;;;;;13.85;3.80;;;6.60;99.90;;;;;;5073099;28;20239;-59
2022/01/31 05:49:30;;;;;;;12.90;3.60;;;6.70;99.90;;;;;;5073079;28;20539;-59
2022/01/31 05:52:02;;;;;;;18.05;3.85;;;6.70;99.90;;;;;;5073143;28;20177;-59
2022/01/31 05:54:29;;;;;;;15.77;4.10;;;6.70;99.90;;;;;;5077302;28;20204;-59
2022/01/31 05:56:56;;;;;;;13.25;3.67;;;6.70;99.90;;;;;;5076843;28;20174;-59
2022/01/31 05:59:22;;;;;;;15.43;3.55;;;6.80;99.90;;;;;;5077020;28;20260;-59
2022/01/31 06:01:47;;;;;;;15.80;3.55;;;6.80;99.90;;;;;;5075268;28;20190;-59
2022/01/31 06:04:13;;;;;;;14.65;3.28;;;6.90;99.90;;;;;;5076783;28;20181;-60
2022/01/31 06:06:39;;;;;;;12.07;3.20;;;6.80;99.90;;;;;;5076467;28;20220;-60
2022/01/31 06:09:05;;;;;;;14.05;3.80;;;6.90;99.90;;;;;;5075922;28;20539;-60
2022/01/31 06:11:33;;;;;;;13.18;3.25;;;7.00;99.90;;;;;;5076152;28;20185;-60
2022/01/31 06:14:09;;;;;;;13.05;3.45;;;6.90;99.90;;;;;;5076710;28;20177;-60
2022/01/31 06:16:35;;;;;;;12.00;3.83;;;6.90;99.90;;;;;;5060519;28;20520;-60
2022/01/31 06:19:01;;;;;;;11.35;3.13;;;6.80;99.90;;;;;;5058427;28;20211;-60
2022/01/31 06:21:27;;;;;;;12.05;3.45;;;6.90;99.90;;;;;;5076399;28;20281;-60
2022/01/31 06:23:53;;;;;;;9.55;3.28;;;6.90;99.90;;;;;;5076347;28;20178;-60
2022/01/31 06:26:20;;;;;;;11.73;3.28;;;6.90;99.90;;;;;;5076490;28;20206;-60
2022/01/31 06:28:47;;;;;;;11.75;3.50;;;6.90;99.90;;;;;;5076202;28;20546;-60
2022/01/31 06:31:13;;;;;;;10.93;3.42;;;7.00;99.90;;;;;;5041911;28;20289;-60
2022/01/31 06:33:39;;;;;;;9.30;3.70;;;7.00;99.90;;;;;;5076208;28;20694;-60
2022/01/31 06:36:05;;;;;;;14.85;3.60;;;7.00;99.90;;;;;;5076249;28;20260;-60
2022/01/31 06:38:31;;;;;;;9.52;3.38;;;7.00;99.90;;;;;;5075929;28;20235;-59
2022/01/31 06:40:57;;;;;;;12.68;4.32;;;7.00;99.90;;;;;;5058258;28;20266;-60
2022/01/31 06:43:23;;;;;;;12.52;3.92;;;7.00;99.90;;;;;;5075954;28;20187;-60
2022/01/31 06:45:49;;;;;;;13.10;3.50;;;7.00;99.90;;;;;;5076059;28;20245;-60
2022/01/31 06:48:15;;;;;;;11.63;3.75;;;7.00;99.90;;;;;;5076248;28;20513;-60
2022/01/31 06:50:41;;;;;;;14.15;3.85;;;7.10;99.90;;;;;;5057996;28;20195;-60
2022/01/31 06:53:06;;;;;;;13.13;3.63;;;7.10;99.90;;;;;;5075661;28;20184;-60
2022/01/31 06:55:34;;;;;;;12.18;3.10;;;7.00;99.90;;;;;;5075824;28;20188;-60
2022/01/31 06:58:02;;;;;;;11.50;3.55;;;7.00;99.90;;;;;;5075874;28;20211;-60
2022/01/31 07:00:28;;;;;;;12.18;3.80;;;7.00;99.90;;;;;;5058132;28;20307;-59
2022/01/31 07:02:54;;;;;;;13.32;3.92;;;7.00;99.90;;;;;;5057158;28;20675;-59
2022/01/31 07:05:21;;;;;;;15.25;3.47;;;7.00;99.90;;;;;;5075539;28;20231;-60
2022/01/31 07:07:47;;;;;;;11.77;3.47;;;7.10;99.90;;;;;;5075563;28;20284;-60
2022/01/31 07:10:14;;;;;;;13.20;3.30;;;7.20;99.90;;;;;;5075675;28;20181;-60
2022/01/31 07:12:47;;;;;;;13.60;3.88;;;7.10;99.90;;;;;;5075450;28;20540;-60
2022/01/31 07:15:13;;;;;;;11.88;3.38;;;7.10;99.90;;;;;;5075553;28;20189;-60
2022/01/31 07:17:40;;;;;;;12.60;3.40;;;7.10;99.90;;;;;;5075302;28;20197;-60
2022/01/31 07:20:10;;;;;;;12.25;3.50;;;7.10;99.90;;;;;;5075221;28;20558;-60
2022/01/31 07:22:38;;;;;;;11.93;3.58;;;7.10;99.90;;;;;;5075539;28;20247;-60
2022/01/31 07:25:08;;;;;;;9.60;3.33;;;7.20;99.90;;;;;;5075497;28;20269;-61
2022/01/31 07:27:35;;;;;;;12.35;3.20;;;7.10;99.90;;;;;;5075268;28;20182;-60
2022/01/31 07:30:01;;;;;;;15.70;4.03;;;7.20;99.90;;;;;;5075222;28;20190;-60
2022/01/31 07:32:29;;;;;;;12.65;3.58;;;7.20;99.90;;;;;;5075033;28;20181;-60
2022/01/31 07:34:55;;;;;;;12.02;3.17;;;7.20;99.90;;;;;;5075197;28;20191;-60
2022/01/31 07:37:26;;;;;;;13.23;3.75;;;7.20;99.90;;;;;;5057286;28;20567;-60
2022/01/31 07:39:52;;;;;;;14.77;3.85;;;7.20;99.90;;;;;;5075030;28;20206;-59
2022/01/31 07:42:19;;;;;;;16.25;3.80;;;7.20;99.90;;;;;;5075240;28;20704;-60
2022/01/31 07:44:46;;;;;;;15.30;3.50;;;7.20;99.90;;;;;;5074863;28;20223;-60
2022/01/31 07:47:11;;;;;;;11.23;3.70;;;7.10;99.90;;;;;;5056705;28;20170;-60
2022/01/31 07:49:37;;;;;;;17.00;3.72;;;7.20;99.90;;;;;;5074726;28;20289;-60
2022/01/31 07:52:03;;;;;;;11.55;3.90;;;7.10;99.90;;;;;;5074661;28;20193;-61
2022/01/31 07:54:29;;;;;;;13.48;3.78;;;7.10;99.90;;;;;;5074636;28;20228;-60
2022/01/31 07:56:57;;;;;;;12.63;3.33;;;7.20;99.90;;;;;;5074673;28;20181;-59
2022/01/31 07:59:23;;;;;;;9.02;2.88;;;7.20;99.90;;;;;;5074499;28;20197;-59
2022/01/31 08:01:49;;;;;;;14.48;3.40;;;7.20;99.90;;;;;;5074479;28;20181;-60
2022/01/31 08:04:15;;;;;;;12.98;4.05;;;7.20;99.90;;;;;;5074644;28;20531;-60
2022/01/31 08:06:40;;;;;;;11.52;3.63;;;7.20;99.90;;;;;;5074595;28;20178;-61
2022/01/31 08:09:06;;;;;;;11.05;3.33;;;7.10;99.90;;;;;;5074465;28;20186;-60
2022/01/31 08:11:34;;;;;;;15.88;4.35;;;7.10;99.90;;;;;;5074329;28;20238;-60
2022/01/31 08:14:05;;;;;;;12.10;4.13;;;7.10;99.90;;;;;;5056639;28;20180;-60
2022/01/31 08:16:32;;;;;;;12.10;3.78;;;7.10;99.90;;;;;;5074121;28;20216;-60
2022/01/31 08:18:58;;;;;;;12.25;3.72;;;7.10;99.90;;;;;;5074203;28;20186;-60
2022/01/31 08:21:24;;;;;;;13.55;3.50;;;7.30;99.90;;;;;;5074280;28;20719;-60
2022/01/31 08:23:51;;;;;;;10.68;2.92;;;7.30;99.90;;;;;;5074101;28;20178;-60
2022/01/31 08:26:16;;;;;;;14.15;3.90;;;7.30;99.90;;;;;;5074041;28;20210;-59
2022/01/31 08:28:49;;;;;;;11.32;3.33;;;7.20;99.90;;;;;;5073969;28;20658;-60
2022/01/31 08:31:29;;;;;;;14.27;3.47;;;7.10;99.90;;;;;;5074133;28;20177;-60
2022/01/31 08:36:21;;;;;;;9.68;3.58;;;7.10;99.90;;;;;;5074021;28;20527;-60
2022/01/31 08:38:47;;;;;;;12.48;3.70;;;7.20;99.90;;;;;;5073781;28;20261;-60
2022/01/31 08:41:14;;;;;;;11.10;3.42;;;7.20;99.90;;;;;;5073707;28;20257;-60
2022/01/31 08:43:40;;;;;;;14.23;3.90;;;7.10;99.90;;;;;;5073857;28;20177;-60
2022/01/31 08:46:08;;;;;;;17.30;4.10;;;7.20;99.90;;;;;;5073848;28;20182;-60
2022/01/31 08:48:34;;;;;;;11.05;3.35;;;7.10;99.90;;;;;;5055832;28;20178;-59
2022/01/31 08:51:02;;;;;;;13.50;3.70;;;7.10;99.90;;;;;;5055775;28;20182;-59
2022/01/31 08:53:28;;;;;;;14.18;3.90;;;7.20;99.90;;;;;;5039295;28;20590;-60
2022/01/31 08:56:00;;;;;;;12.93;4.20;;;7.10;99.90;;;;;;5073427;28;20252;-60
2022/01/31 08:58:27;;;;;;;11.32;3.58;;;7.20;99.90;;;;;;5073834;28;20165;-62
2022/01/31 09:01:00;;;;;;;13.77;4.05;;;7.10;99.90;;;;;;5056178;28;20681;-60
2022/01/31 09:06:04;;;;;;;16.17;3.85;;;7.20;99.90;;;;;;5073509;28;20189;-60
2022/01/31 09:08:30;;;;;;;9.80;3.30;;;7.20;99.90;;;;;;5073306;28;20178;-60
2022/01/31 09:10:56;;;;;;;14.27;3.90;;;7.30;99.90;;;;;;5073551;28;20178;-59
2022/01/31 09:13:21;;;;;;;14.15;3.88;;;7.30;99.90;;;;;;5055434;28;20185;-60
2022/01/31 09:15:47;;;;;;;12.52;3.63;;;7.30;99.90;;;;;;5073240;28;20202;-60
2022/01/31 09:18:13;;;;;;;14.77;4.00;;;7.30;99.90;;;;;;5072932;28;20194;-60
2022/01/31 09:20:38;;;;;;;15.95;4.10;;;7.30;99.90;;;;;;5073105;28;20312;-60
2022/01/31 09:23:05;;;;;;;11.85;3.67;;;7.30;99.90;;;;;;5073127;28;20216;-60
2022/01/31 09:25:32;;;;;;;14.60;4.43;;;7.30;99.90;;;;;;5073369;28;20174;-60
2022/01/31 09:27:59;;;;;;;13.70;3.78;;;7.40;99.90;;;;;;5072861;28;20170;-59
2022/01/31 09:30:27;;;;;;;16.42;4.15;;;7.20;99.90;;;;;;5073191;28;20273;-60
2022/01/31 09:32:57;;;;;;;21.15;4.93;;;7.30;99.90;;;;;;5073095;28;20220;-60
2022/01/31 09:35:24;;;;;;;12.90;4.30;;;7.30;99.90;;;;;;5073070;28;20638;-60
2022/01/31 09:37:50;;;;;;;17.80;4.60;;;7.10;99.90;;;;;;5072966;28;20175;-60
2022/01/31 09:40:19;;;;;;;24.55;5.38;;;7.10;99.90;;;;;;5054388;28;20203;-60
2022/01/31 09:48:33;;;;;;;12.43;3.20;;;5.60;99.90;;;;;;5073011;28;20618;-61
2022/01/31 09:51:20;;;;;;;12.98;3.75;;;5.50;99.90;;;;;;5073116;28;20223;-62
2022/01/31 09:53:50;;;;;;;15.70;3.80;;;5.50;99.90;;;;;;5072902;28;20174;-61
2022/01/31 09:56:22;;;;;;;18.45;4.57;;;5.50;99.90;;;;;;5072975;28;20166;-60
2022/01/31 09:58:49;;;;;;;19.20;3.93;;;5.70;99.90;;;;;;5072754;28;20204;-61
2022/01/31 10:01:25;;;;;;;18.10;4.25;;;5.80;99.90;;;;;;5073181;28;20200;-61
2022/01/31 10:03:58;;;;;;;20.30;3.95;;;6.10;99.90;;;;;;5072798;28;20639;-61
2022/01/31 10:06:36;;;;;;;11.70;3.85;;;6.30;99.90;;;;;;5072840;28;20604;-61
2022/01/31 10:09:11;;;;;;;15.43;4.30;;;6.20;99.90;;;;;;5072649;28;20204;-61
2022/01/31 10:17:09;;;;;;;22.02;5.65;;;6.60;99.90;;;;;;5072528;28;20185;-60
2022/01/31 10:19:41;;;;;;;20.95;5.05;;;6.70;99.90;;;;;;5072788;28;20209;-60
2022/01/31 10:22:09;;;;;;;24.45;6.20;;;6.70;99.90;;;;;;5072744;28;20261;-60
2022/01/31 10:24:36;;;;;;;18.35;5.80;;;6.80;99.90;;;;;;5072694;28;20208;-60
2022/01/31 10:27:29;;;;;;;14.75;5.03;;;6.80;99.90;;;;;;5072599;28;20173;-59
2022/01/31 10:30:06;;;;;;;19.10;4.93;;;7.00;99.90;;;;;;5070302;28;20190;-60
2022/01/31 10:32:35;;;;;;;15.05;4.70;;;7.00;99.90;;;;;;5072519;28;20650;-60
2022/01/31 10:35:06;;;;;;;15.73;4.40;;;7.00;99.90;;;;;;5072546;28;20174;-59
2022/01/31 10:37:34;;;;;;;18.55;4.78;;;6.90;99.90;;;;;;5072556;28;20202;-61
2022/01/31 10:57:03;;;;;;;21.55;4.78;;;6.50;99.90;;;;;;5075843;28;20194;-59
2022/01/31 10:59:37;;;;;;;20.88;6.07;;;6.60;99.90;;;;;;5075722;28;20719;-60
2022/01/31 11:02:07;;;;;;;15.02;5.07;;;6.80;99.90;;;;;;5075672;28;20178;-60
2022/01/31 11:04:34;;;;;;;17.98;5.00;;;6.90;99.90;;;;;;5075856;28;20209;-60
2022/01/31 11:07:04;;;;;;;20.15;5.60;;;6.80;99.90;;;;;;5075669;28;20662;-59
2022/01/31 11:09:31;;;;;;;18.52;5.22;;;7.00;99.90;;;;;;5075636;28;20166;-60
2022/01/31 11:11:57;;;;;;;17.42;4.47;;;7.10;99.90;;;;;;5075615;28;20273;-60
2022/01/31 11:14:23;;;;;;;20.05;5.28;;;7.00;99.90;;;;;;5057672;28;20307;-60
2022/01/31 11:16:49;;;;;;;14.57;5.18;;;7.00;99.90;;;;;;5075447;28;20173;-59
2022/01/31 11:19:22;;;;;;;18.23;5.15;;;6.80;99.90;;;;;;5075213;28;20239;-60
2022/01/31 11:21:49;;;;;;;20.77;4.70;;;6.90;99.90;;;;;;5075171;28;20174;-60
2022/01/31 11:24:22;;;;;;;17.70;5.35;;;7.00;99.90;;;;;;5075167;28;20187;-60
2022/01/31 11:27:16;;;;;;;20.65;4.57;;;7.00;99.90;;;;;;5057364;28;20177;-60
2022/01/31 11:29:47;;;;;;;15.63;4.30;;;7.00;99.90;;;;;;5068886;28;20193;-59
2022/01/31 11:32:14;;;;;;;19.20;4.95;;;7.00;99.90;;;;;;5074104;28;20177;-60
2022/01/31 11:34:42;;;;;;;14.05;3.90;;;7.00;99.90;;;;;;5074049;28;20268;-60
2022/01/31 11:37:10;;;;;;;15.32;4.28;;;7.10;99.90;;;;;;5075274;28;20232;-59
2022/01/31 11:39:41;;;;;;;13.60;4.20;;;6.90;99.90;;;;;;5075144;28;20205;-60
2022/01/31 11:42:08;;;;;;;15.35;4.43;;;6.80;99.90;;;;;;5074991;28;20181;-59
2022/01/31 11:44:55;;;;;;;12.30;4.20;;;6.80;99.90;;;;;;5074878;28;20648;-59
2022/01/31 11:47:25;;;;;;;15.05;4.18;;;6.80;99.90;;;;;;5074994;28;20231;-60
2022/01/31 11:50:12;;;;;;;14.40;4.07;;;6.80;99.90;;;;;;5074619;28;20224;-59
2022/01/31 11:52:55;;;;;;;18.60;4.65;;;7.00;99.90;;;;;;5074842;28;20657;-59
2022/01/31 11:55:25;;;;;;;15.18;4.50;;;7.10;99.90;;;;;;5074967;28;20177;-60
2022/01/31 11:57:53;;;;;;;15.93;4.63;;;7.30;99.90;;;;;;5074822;28;20179;-59
2022/01/31 12:00:22;;;;;;;20.80;5.75;;;7.60;99.90;;;;;;5074617;28;20730;-60
2022/01/31 12:02:53;;;;;;;22.75;5.30;;;7.60;99.90;;;;;;5074694;28;20182;-59
2022/01/31 12:05:26;;;;;;;15.70;5.63;;;7.60;99.90;;;;;;5074502;28;20169;-60
2022/01/31 12:08:09;;;;;;;22.00;5.78;;;7.50;99.90;;;;;;5074832;28;20194;-60
2022/01/31 12:10:39;;;;;;;24.40;5.88;;;7.50;99.90;;;;;;5074412;28;20190;-60
2022/01/31 12:13:26;;;;;;;16.50;5.35;;;7.40;99.90;;;;;;5074470;28;20177;-59
2022/01/31 12:16:02;;;;;;;15.85;5.15;;;7.00;99.90;;;;;;5074327;28;20235;-60
2022/01/31 12:23:50;;;;;;;18.70;5.45;;;6.70;99.90;;;;;;5074154;28;20189;-59
2022/01/31 12:26:43;;;;;;;16.88;5.50;;;6.70;99.90;;;;;;5074021;28;20192;-60
2022/01/31 12:29:15;;;;;;;20.58;5.75;;;6.90;99.90;;;;;;5074193;28;20169;-60
2022/01/31 12:31:42;;;;;;;19.50;4.75;;;6.90;99.90;;;;;;5073791;28;20512;-60
2022/01/31 12:34:34;;;;;;;18.83;5.65;;;6.80;99.90;;;;;;5073912;28;20175;-60
2022/01/31 12:37:14;;;;;;;21.58;6.05;;;7.00;99.90;;;;;;5074152;28;20155;-59
2022/01/31 12:39:43;;;;;;;20.63;5.53;;;7.10;99.90;;;;;;5073822;28;20201;-59
2022/01/31 12:42:55;;;;;;;24.98;6.43;;;7.00;99.90;;;;;;5074101;28;20528;-60
2022/01/31 12:45:27;;;;;;;22.85;5.80;;;7.20;99.90;;;;;;5072997;28;20193;-60
2022/01/31 12:48:15;;;;;;;22.02;5.88;;;7.00;99.90;;;;;;5073620;28;20179;-60
2022/01/31 12:50:59;;;;;;;23.08;5.93;;;6.90;99.90;;;;;;5073725;28;20178;-60
2022/01/31 12:56:21;;;;;;;22.40;6.38;;;7.00;99.90;;;;;;5073898;28;20178;-60
2022/01/31 12:58:59;;;;;;;20.17;5.75;;;6.80;99.90;;;;;;5073472;28;20181;-59
2022/01/31 13:01:28;;;;;;;23.92;6.15;;;6.90;99.90;;;;;;5073081;28;20297;-60
2022/01/31 13:04:01;;;;;;;22.75;5.93;;;6.80;99.90;;;;;;5055419;28;20170;-60
2022/01/31 13:06:45;;;;;;;26.02;6.70;;;6.90;99.90;;;;;;5073576;28;20182;-59
2022/01/31 13:09:15;;;;;;;22.33;6.28;;;6.90;99.90;;;;;;5073491;28;20174;-59
2022/01/31 13:11:52;;;;;;;30.10;6.63;;;6.90;99.90;;;;;;5073539;28;20162;-60
2022/01/31 13:14:27;;;;;;;26.98;7.10;;;6.90;99.90;;;;;;5073248;28;20174;-59
2022/01/31 13:17:07;;;;;;;26.05;7.72;;;6.80;99.90;;;;;;5073413;28;20183;-60
2022/01/31 13:19:35;;;;;;;25.85;6.78;;;6.90;99.90;;;;;;5072689;28;20685;-59
2022/01/31 13:22:08;;;;;;;24.95;6.53;;;6.90;99.90;;;;;;5073174;28;20248;-59
2022/01/31 13:24:50;;;;;;;21.38;6.40;;;6.90;99.90;;;;;;5073199;28;20508;-60
2022/01/31 13:27:21;;;;;;;25.88;6.07;;;6.90;99.90;;;;;;5055408;28;20185;-60
2022/01/31 13:29:50;;;;;;;29.35;6.20;;;6.90;99.90;;;;;;5055557;28;20209;-59
2022/01/31 13:32:28;;;;;;;29.05;7.55;;;6.90;99.90;;;;;;5073174;28;20632;-59
2022/01/31 13:34:59;;;;;;;20.00;6.22;;;6.90;99.90;;;;;;5073103;28;20180;-60
2022/01/31 13:37:35;;;;;;;21.83;7.03;;;6.90;99.90;;;;;;5073268;28;20162;-59
2022/01/31 13:40:24;;;;;;;26.85;6.63;;;6.90;99.90;;;;;;5055199;28;20198;-60
2022/01/31 13:43:21;;;;;;;20.58;6.03;;;7.00;99.90;;;;;;5073094;28;20181;-60
2022/01/31 13:51:38;;;;;;;25.40;6.40;;;6.90;99.90;;;;;;5073035;28;20281;-61